Townline, New York
Current Conditions -  °F | °C
As of 3:54 AM on Friday 19 Dec 2014 (Local Time) from KBUF Reporting Station
Overcast Overcast  
Wind Chill: -8°   Ceiling: 1400
Heat Index: -3°   Visibility: 10mi
Dew Point: -7°   Wind: 9mph
Humidity: 78%   Direction: 270°W
Pressure: 30.1"   Gusts: NA
Location:  42.8931°N, 78.5076°W
Report Text: KBUF 190854Z 27008KT 10SM OVC014 M03/M07 A3010 RMK AO2 SLP202 T10331067 50007
Loading
Personal Weather Stations






























Interactive Weather Map New forecast layout! Learn more

10-Day Weather Forecast

Advertisements
Track Severe Weather on mobile